Impacts METAR Board
IDs:

KBWI - Baltimore-Washington, MD, US

Updated at: 0800 UTC 25 May 2020
Potential Impact None Slight Moderate High
Time 24/20Z 24/21Z 24/22Z 24/23Z 25/00Z 25/01Z 25/02Z 25/03Z 25/04Z 25/05Z 25/06Z 25/07Z 25/08Z
Temp66 64 64 64 64 64 63 64 63 62 62 62 62
Dewpt56 56 56 56 56 56 57 56 57 56 56 56 56
Altim30.20 30.19 30.18 30.18 30.17 30.18 30.21 30.21 30.20 30.20 30.18 30.18 30.18
VIS10 10 10 10 9 10 10 10 10 10 9 10 10
CIG26 17 17 18 19 22 23 22 23 24 23 23 21
CoverBKNOVCOVCOVCOVCOVCOVCOVCOVCOVCOVCOVCOVC
FltCatMVFRMVFRMVFRMVFRMVFRMVFRMVFRMVFRMVFRMVFRMVFRMVFRMVFR
WX--------------------------
WDir9090110013000090110140120100
WSpd10 7 6 0 3 0 0 0 5 4 5 3 4
WGst-- -- -- -- -- -- -- -- -- -- -- -- --
Raw hourly METARs
KBWI 241954Z 09010KT 10SM SCT021 BKN026 BKN250 19/13 A3020 RMK AO2 SLP224 T01890133
KBWI 242054Z 09007KT 10SM OVC017 18/13 A3019 RMK AO2 SLP224 T01780133 56007
KBWI 242154Z 11006KT 10SM OVC017 18/13 A3018 RMK AO2 SLP218 T01780133
KBWI 242254Z 00000KT 10SM OVC018 18/13 A3018 RMK AO2 SLP219 T01780133
KBWI 242354Z 13003KT 9SM OVC019 18/13 A3017 RMK AO2 SLP217 T01780133 10194 20172 56007
KBWI 250054Z 00000KT 10SM OVC022 18/13 A3018 RMK AO2 SLP220 T01780133
KBWI 250154Z 00000KT 10SM OVC023 17/14 A3021 RMK AO2 SLP228 T01720139
KBWI 250254Z 00000KT 10SM FEW016 OVC022 18/13 A3021 RMK AO2 SLP229 T01780133 51012
KBWI 250354Z 09005KT 10SM OVC023 17/14 A3020 RMK AO2 SLP226 T01720139
KBWI 250454Z 11004KT 10SM OVC024 17/13 A3020 RMK AO2 SLP224 T01670133 401940150
KBWI 250554Z 14005KT 9SM FEW016 OVC023 17/13 A3018 RMK AO2 SLP219 T01670133 10178 20167 58010
KBWI 250654Z 12003KT 10SM FEW016 OVC023 17/13 A3018 RMK AO2 SLP220 T01670133
KBWI 250754Z 10004KT 10SM FEW014 OVC021 17/13 A3018 RMK AO2 SLP220 T01670133



Page loaded:  08:37 UTC  |   01:37 AM Pacific  |   02:37 AM Mountain  |   03:37 AM Central  |   04:37 AM Eastern

 

ADVISORIES

FORECASTS

FORECASTS

OBSERVATIONS

USER TOOLS

ABOUT US